createdAt,value
2018-02-16T00:02:25.758Z,110.47
2018-02-16T00:04:53.382Z,107.20
2018-02-16T00:07:20.940Z,109.40
2018-02-16T00:09:48.599Z,121.47
2018-02-16T00:12:16.157Z,103.10
2018-02-16T00:14:43.695Z,96.20
2018-02-16T00:17:11.290Z,100.93
2018-02-16T00:19:38.842Z,106.17
2018-02-16T00:22:06.367Z,106.03
2018-02-16T00:24:33.978Z,119.70
2018-02-16T00:27:01.536Z,114.03
2018-02-16T00:29:29.055Z,123.63
2018-02-16T00:31:56.648Z,127.43
2018-02-16T00:34:24.181Z,117.40
2018-02-16T00:36:51.740Z,111.23
2018-02-16T00:39:19.348Z,85.40
2018-02-16T00:41:46.900Z,106.93
2018-02-16T00:44:15.570Z,132.07
2018-02-16T00:46:43.137Z,120.77
2018-02-16T00:49:10.683Z,112.17
2018-02-16T00:51:38.236Z,118.53
2018-02-16T00:54:05.805Z,125.87
2018-02-16T00:56:33.397Z,106.20
2018-02-16T00:59:00.934Z,110.17
2018-02-16T01:01:28.471Z,108.33
2018-02-16T01:03:56.034Z,104.77
2018-02-16T01:06:23.584Z,108.40
2018-02-16T01:08:51.182Z,101.37
2018-02-16T01:11:18.723Z,118.20
2018-02-16T01:13:46.332Z,116.27
2018-02-16T01:16:13.889Z,129.53
2018-02-16T01:18:41.460Z,118.50
2018-02-16T01:21:09.110Z,115.57
2018-02-16T01:23:36.753Z,108.87
2018-02-16T01:26:04.304Z,119.23
2018-02-16T01:28:31.866Z,117.17
2018-02-16T01:30:59.445Z,112.63
2018-02-16T01:33:27.061Z,114.97
2018-02-16T01:35:54.610Z,116.07
2018-02-16T01:38:22.183Z,112.20
2018-02-16T01:40:49.767Z,119.03
2018-02-16T01:43:17.325Z,125.00
2018-02-16T01:45:44.881Z,146.13
2018-02-16T01:48:12.440Z,125.37
2018-02-16T01:50:40.056Z,118.47
2018-02-16T01:53:07.702Z,101.67
2018-02-16T01:55:35.264Z,145.60
2018-02-16T01:58:02.900Z,109.33
2018-02-16T02:00:30.512Z,109.00
2018-02-16T02:02:58.097Z,85.67
2018-02-16T02:05:25.726Z,122.53
2018-02-16T02:07:53.267Z,95.83
2018-02-16T02:10:20.822Z,102.93
2018-02-16T02:12:48.426Z,115.47
2018-02-16T02:15:15.979Z,91.73
2018-02-16T02:17:43.532Z,104.87
2018-02-16T02:20:11.128Z,118.70
2018-02-16T02:22:38.692Z,105.93
2018-02-16T02:25:06.219Z,109.70
2018-02-16T02:27:33.801Z,113.27
2018-02-16T02:30:01.407Z,110.90
2018-02-16T02:32:28.919Z,93.90
2018-02-16T02:34:56.467Z,104.23
2018-02-16T02:37:24.015Z,126.73
2018-02-16T02:39:51.562Z,108.77
2018-02-16T02:42:19.111Z,107.97
2018-02-16T02:44:46.639Z,127.73
2018-02-16T02:47:14.232Z,109.60
2018-02-16T02:49:41.863Z,104.73
2018-02-16T02:52:09.395Z,109.67
2018-02-16T02:54:36.953Z,105.23
2018-02-16T02:57:04.591Z,93.53
2018-02-16T02:59:32.249Z,94.03
2018-02-16T03:01:59.813Z,97.63
2018-02-16T03:04:27.411Z,88.93
2018-02-16T03:06:54.926Z,96.27
2018-02-16T03:09:22.452Z,94.80
2018-02-16T03:11:50.032Z,104.13
2018-02-16T03:14:17.552Z,87.37
2018-02-16T03:16:45.129Z,96.40
2018-02-16T03:19:12.656Z,95.40
2018-02-16T03:21:40.194Z,90.63
2018-02-16T03:24:07.737Z,80.50
2018-02-16T03:26:35.284Z,87.53
2018-02-16T03:29:02.894Z,85.47
2018-02-16T03:31:30.430Z,97.67
2018-02-16T03:33:57.951Z,104.33
2018-02-16T03:36:25.531Z,91.27
2018-02-16T03:38:53.078Z,86.80
2018-02-16T03:41:20.600Z,95.70
2018-02-16T03:43:48.191Z,100.70
2018-02-16T03:46:15.759Z,85.47
2018-02-16T03:48:43.308Z,89.50
2018-02-16T03:51:10.938Z,86.63
2018-02-16T03:53:38.548Z,72.93
2018-02-16T03:56:06.107Z,81.03
2018-02-16T03:58:33.657Z,98.47
2018-02-16T04:01:01.194Z,92.03
2018-02-16T04:03:28.865Z,109.27
2018-02-16T04:05:56.431Z,108.23
2018-02-16T04:08:23.975Z,94.73
2018-02-16T04:10:51.579Z,86.43
2018-02-16T04:13:19.103Z,113.77
2018-02-16T04:15:46.650Z,97.17
2018-02-16T04:18:14.227Z,100.50
2018-02-16T04:20:41.752Z,101.40
2018-02-16T04:23:09.340Z,93.87
2018-02-16T04:25:38.080Z,106.90
2018-02-16T04:28:05.622Z,96.93
2018-02-16T04:30:33.175Z,81.67
2018-02-16T04:33:00.773Z,103.87
2018-02-16T04:35:28.359Z,107.53
2018-02-16T04:37:55.923Z,102.37
2018-02-16T04:40:23.504Z,122.73
2018-02-16T04:42:51.089Z,100.67
2018-02-16T04:45:18.635Z,79.50
2018-02-16T04:47:46.212Z,109.27
2018-02-16T04:50:13.768Z,102.47
2018-02-16T04:52:41.328Z,113.07
2018-02-16T04:55:08.911Z,87.33
2018-02-16T04:57:36.515Z,91.50
2018-02-16T05:00:04.079Z,107.77
2018-02-16T05:02:31.621Z,93.83
2018-02-16T05:04:59.195Z,90.30
2018-02-16T05:07:26.744Z,93.17
2018-02-16T05:09:54.286Z,113.37
2018-02-16T05:12:21.897Z,95.50
2018-02-16T05:14:49.437Z,84.47
2018-02-16T05:17:16.965Z,92.33
2018-02-16T05:19:44.512Z,87.00
2018-02-16T05:22:12.067Z,107.50
2018-02-16T05:24:39.668Z,93.43
2018-02-16T05:27:07.255Z,89.90
2018-02-16T05:29:34.791Z,95.10
2018-02-16T05:32:02.413Z,103.50
2018-02-16T05:34:30.891Z,97.33
2018-02-16T05:36:58.469Z,86.37
2018-02-16T05:39:26.237Z,108.60
2018-02-16T05:41:53.894Z,90.07
2018-02-16T05:44:21.467Z,100.40
2018-02-16T05:46:49.050Z,100.93
2018-02-16T05:49:16.608Z,79.43
2018-02-16T05:51:46.296Z,101.17
2018-02-16T05:54:13.878Z,85.43
2018-02-16T05:56:41.448Z,109.00
2018-02-16T05:59:09.022Z,97.93
2018-02-16T06:01:38.512Z,96.53
2018-02-16T06:04:06.367Z,87.80
2018-02-16T06:06:35.436Z,81.97
2018-02-16T06:09:03.933Z,87.50
2018-02-16T06:11:31.651Z,99.40
2018-02-16T06:13:59.269Z,90.00
2018-02-16T06:16:26.805Z,75.53
2018-02-16T06:18:54.336Z,89.30
2018-02-16T06:21:21.888Z,86.03
2018-02-16T06:23:49.917Z,84.70
2018-02-16T06:26:18.689Z,90.30
2018-02-16T06:28:47.180Z,79.47
2018-02-16T06:31:14.746Z,79.07
2018-02-16T06:33:42.320Z,72.33
2018-02-16T06:36:11.196Z,77.80
2018-02-16T06:38:38.748Z,74.83
2018-02-16T06:41:06.344Z,71.40
2018-02-16T06:43:33.919Z,81.80
2018-02-16T06:46:01.497Z,77.70
2018-02-16T06:48:29.036Z,81.87
2018-02-16T06:50:56.581Z,99.60
2018-02-16T06:53:24.634Z,84.53
2018-02-16T06:55:52.204Z,73.63
2018-02-16T06:58:19.853Z,70.13
2018-02-16T07:00:48.124Z,75.33
2018-02-16T07:03:15.752Z,95.87
2018-02-16T07:05:43.309Z,83.33
2018-02-16T07:08:11.831Z,74.03
2018-02-16T07:10:39.467Z,89.73
2018-02-16T07:13:07.022Z,80.43
2018-02-16T07:15:34.604Z,89.93
2018-02-16T07:18:02.165Z,89.83
2018-02-16T07:20:29.777Z,68.30
2018-02-16T07:22:57.513Z,80.40
2018-02-16T07:25:26.471Z,75.87
2018-02-16T07:27:54.243Z,71.17
2018-02-16T07:30:21.800Z,67.40
2018-02-16T07:32:49.415Z,75.33
2018-02-16T07:35:17.028Z,64.27
2018-02-16T07:37:45.427Z,62.93
2018-02-16T07:40:13.985Z,70.63
2018-02-16T07:42:41.689Z,69.90
2018-02-16T07:45:09.283Z,60.43
2018-02-16T07:47:36.851Z,65.43
2018-02-16T07:50:05.135Z,56.07
2018-02-16T07:52:32.724Z,77.93
2018-02-16T07:55:00.327Z,66.80
2018-02-16T07:57:27.852Z,58.53
2018-02-16T07:59:55.416Z,61.97
2018-02-16T08:02:23.026Z,64.27
2018-02-16T08:04:51.237Z,60.10
2018-02-16T08:07:18.827Z,49.00
2018-02-16T08:09:46.357Z,69.93
2018-02-16T08:12:13.919Z,70.47
2018-02-16T08:14:41.439Z,74.57
2018-02-16T08:17:09.671Z,61.63
2018-02-16T08:19:37.261Z,52.70
2018-02-16T08:22:04.830Z,67.07
2018-02-16T08:24:32.388Z,58.63
2018-02-16T08:26:59.968Z,53.30
2018-02-16T08:29:27.537Z,66.03
2018-02-16T08:31:55.090Z,61.20
2018-02-16T08:34:22.782Z,58.83
2018-02-16T08:36:50.316Z,54.83
2018-02-16T08:39:17.831Z,51.03
2018-02-16T08:41:45.400Z,55.83
2018-02-16T08:44:13.567Z,72.37
2018-02-16T08:46:41.152Z,53.97
2018-02-16T08:49:08.841Z,57.40
2018-02-16T08:51:36.417Z,54.83
2018-02-16T08:54:04.322Z,66.70
2018-02-16T08:56:31.925Z,54.13
2018-02-16T08:58:59.527Z,61.07
2018-02-16T09:01:27.773Z,39.37
2018-02-16T09:03:55.435Z,52.50
2018-02-16T09:06:23.065Z,48.43
2018-02-16T09:08:51.917Z,65.97
2018-02-16T09:11:19.674Z,59.90
2018-02-16T09:13:47.769Z,49.87
2018-02-16T09:16:15.351Z,58.03
2018-02-16T09:18:42.898Z,49.03
2018-02-16T09:21:10.498Z,45.40
2018-02-16T09:23:38.038Z,45.40
2018-02-16T09:26:06.440Z,41.90
2018-02-16T09:28:34.064Z,39.63
2018-02-16T09:31:01.596Z,41.53
2018-02-16T09:33:29.154Z,37.47
2018-02-16T09:35:58.922Z,41.07
2018-02-16T09:38:26.496Z,55.43
2018-02-16T09:40:54.423Z,54.00
2018-02-16T09:43:22.414Z,47.23
2018-02-16T09:45:49.977Z,50.27
2018-02-16T09:48:17.956Z,35.30
2018-02-16T09:50:46.421Z,40.57
2018-02-16T09:53:14.108Z,29.13
2018-02-16T09:55:41.637Z,32.90
2018-02-16T09:58:09.180Z,36.67
2018-02-16T10:00:36.757Z,27.10
2018-02-16T10:03:04.303Z,42.10
2018-02-16T10:05:31.818Z,32.67
2018-02-16T10:07:59.384Z,32.03
2018-02-16T10:10:26.965Z,31.27
2018-02-16T10:12:54.519Z,24.10
2018-02-16T10:15:22.101Z,37.47
2018-02-16T10:17:49.649Z,31.40
2018-02-16T10:20:17.316Z,29.80
2018-02-16T10:22:44.841Z,29.37
2018-02-16T10:25:12.459Z,29.57
2018-02-16T10:27:40.027Z,29.67
2018-02-16T10:30:07.596Z,18.23
2018-02-16T10:32:35.271Z,26.13
2018-02-16T10:35:03.097Z,32.23
2018-02-16T10:37:31.866Z,22.67
2018-02-16T10:40:00.431Z,29.43
2018-02-16T10:42:28.831Z,28.00
2018-02-16T10:44:56.491Z,34.40
2018-02-16T10:47:24.035Z,25.97
2018-02-16T10:49:52.402Z,38.83
2018-02-16T10:52:20.008Z,18.00
2018-02-16T10:54:47.599Z,17.00
2018-02-16T10:57:15.718Z,24.40
2018-02-16T10:59:43.331Z,36.97
2018-02-16T11:02:17.823Z,26.83
2018-02-16T11:04:50.923Z,23.67
2018-02-16T11:07:24.200Z,22.17
2018-02-16T11:09:52.396Z,22.30
2018-02-16T11:12:20.523Z,21.17
2018-02-16T11:14:48.140Z,41.83
2018-02-16T11:17:15.700Z,15.73
2018-02-16T11:19:43.325Z,23.53
2018-02-16T11:22:10.895Z,17.30
2018-02-16T11:24:38.438Z,16.57
2018-02-16T11:27:07.876Z,10.40
2018-02-16T11:29:35.546Z,22.10
2018-02-16T11:32:03.177Z,21.93
2018-02-16T11:34:30.728Z,30.53
2018-02-16T11:36:58.328Z,15.27
2018-02-16T11:39:25.869Z,14.57
2018-02-16T11:41:53.416Z,19.67
2018-02-16T11:44:21.000Z,14.20
2018-02-16T11:46:48.551Z,12.73
2018-02-16T11:49:16.111Z,10.20
2018-02-16T11:51:43.681Z,17.23
2018-02-16T11:54:11.251Z,20.37
2018-02-16T11:56:39.408Z,11.37
2018-02-16T11:59:06.986Z,12.60
2018-02-16T12:01:34.636Z,21.30
2018-02-16T12:04:02.189Z,12.87
2018-02-16T12:06:29.767Z,10.73
2018-02-16T12:08:57.561Z,8.20
2018-02-16T12:11:25.083Z,23.20
2018-02-16T12:13:53.082Z,20.83
2018-02-16T12:16:20.648Z,16.80
2018-02-16T12:18:49.321Z,23.03
2018-02-16T12:21:17.617Z,19.50
2018-02-16T12:23:46.137Z,10.90
2018-02-16T12:26:14.357Z,17.00
2018-02-16T12:28:42.503Z,13.43
2018-02-16T12:31:10.096Z,14.83
2018-02-16T12:33:37.612Z,12.70
2018-02-16T12:36:05.232Z,16.67
2018-02-16T12:38:32.775Z,16.33
2018-02-16T12:41:00.805Z,23.73
2018-02-16T12:43:28.399Z,17.67
2018-02-16T12:45:55.914Z,14.43
2018-02-16T12:48:24.568Z,16.77
2018-02-16T12:50:52.104Z,18.30
2018-02-16T12:53:19.667Z,15.47
2018-02-16T12:55:47.496Z,16.73
2018-02-16T12:58:15.035Z,37.30
2018-02-16T13:00:42.584Z,11.53
2018-02-16T13:03:10.155Z,15.90
2018-02-16T13:05:38.013Z,16.90
2018-02-16T13:08:07.665Z,8.53
2018-02-16T13:10:35.266Z,9.37
2018-02-16T13:13:03.108Z,12.17
2018-02-16T13:15:30.744Z,14.50
2018-02-16T13:17:58.288Z,19.57
2018-02-16T13:20:25.816Z,12.73
2018-02-16T13:22:53.413Z,8.40
2018-02-16T13:25:20.952Z,8.20
2018-02-16T13:27:48.497Z,13.17
2018-02-16T13:30:20.068Z,9.30
2018-02-16T13:32:47.604Z,8.27
2018-02-16T13:35:15.139Z,9.83
2018-02-16T13:37:42.753Z,12.00
2018-02-16T13:40:12.231Z,9.17
2018-02-16T13:42:39.811Z,13.60
2018-02-16T13:45:07.374Z,11.27
2018-02-16T13:47:35.383Z,8.30
2018-02-16T13:50:04.146Z,7.93
2018-02-16T13:52:33.518Z,10.50
2018-02-16T13:55:01.133Z,18.03
2018-02-16T13:57:29.593Z,12.93
2018-02-16T13:59:57.191Z,8.60
2018-02-16T14:02:25.595Z,8.17
2018-02-16T14:04:53.134Z,13.00
2018-02-16T14:07:20.728Z,12.50
2018-02-16T14:09:48.321Z,9.80
2018-02-16T14:12:15.839Z,20.73
2018-02-16T14:14:43.351Z,12.67
2018-02-16T14:17:12.111Z,11.83
2018-02-16T14:19:39.683Z,12.87
2018-02-16T14:22:07.233Z,8.03
2018-02-16T14:24:34.776Z,9.90
2018-02-16T14:27:02.323Z,12.33
2018-02-16T14:29:29.869Z,13.20
2018-02-16T14:31:57.414Z,7.10
2018-02-16T14:34:25.026Z,16.57
2018-02-16T14:36:52.597Z,17.93
2018-02-16T14:39:20.138Z,11.30
2018-02-16T14:41:47.705Z,20.33
2018-02-16T14:44:15.232Z,8.90
2018-02-16T14:46:42.821Z,12.73
2018-02-16T14:49:10.419Z,8.93
2018-02-16T14:51:37.954Z,10.23
2018-02-16T14:54:06.905Z,8.77
2018-02-16T14:56:35.069Z,11.77
2018-02-16T14:59:02.817Z,12.03
2018-02-16T15:01:30.336Z,17.03
2018-02-16T15:03:57.972Z,11.90
2018-02-16T15:06:25.491Z,12.33
2018-02-16T15:08:53.068Z,12.93
2018-02-16T15:11:20.586Z,14.10
2018-02-16T15:13:48.172Z,4.43
2018-02-16T15:16:15.748Z,12.23
2018-02-16T15:18:43.280Z,9.20
2018-02-16T15:21:12.163Z,18.10
2018-02-16T15:23:39.765Z,12.20
2018-02-16T15:26:07.358Z,15.23
2018-02-16T15:28:34.948Z,11.37
2018-02-16T15:31:02.561Z,12.40
2018-02-16T15:33:30.133Z,12.70
2018-02-16T15:35:57.670Z,15.80
2018-02-16T15:38:25.255Z,17.93
2018-02-16T15:40:52.793Z,11.03
2018-02-16T15:43:21.761Z,16.47
2018-02-16T15:45:49.371Z,9.73
2018-02-16T15:48:16.906Z,11.73
2018-02-16T15:50:44.424Z,10.50
2018-02-16T15:53:12.011Z,8.97
2018-02-16T15:55:39.571Z,9.23
2018-02-16T15:58:07.110Z,15.70
2018-02-16T16:00:34.704Z,12.60
2018-02-16T16:03:04.310Z,20.57
2018-02-16T16:05:32.012Z,8.17
2018-02-16T16:07:59.638Z,11.27
2018-02-16T16:10:27.278Z,10.73
2018-02-16T16:12:54.825Z,15.47
2018-02-16T16:15:22.383Z,12.87
2018-02-16T16:17:49.915Z,10.63
2018-02-16T16:20:17.562Z,11.03
2018-02-16T16:22:45.099Z,10.80
2018-02-16T16:25:12.676Z,13.43
2018-02-16T16:27:40.182Z,9.80
2018-02-16T16:30:08.912Z,10.17
2018-02-16T16:32:36.916Z,20.50
2018-02-16T16:35:04.484Z,13.20
2018-02-16T16:37:32.048Z,13.00
2018-02-16T16:39:59.629Z,17.60
2018-02-16T16:42:27.135Z,6.20
2018-02-16T16:44:54.695Z,26.53
2018-02-16T16:47:22.230Z,10.50
2018-02-16T16:49:49.827Z,10.60
2018-02-16T16:52:17.410Z,13.30
2018-02-16T16:54:44.924Z,10.03
2018-02-16T16:57:12.499Z,9.10
2018-02-16T16:59:40.035Z,20.93
2018-02-16T17:02:07.565Z,11.77
2018-02-16T17:04:35.187Z,11.10
2018-02-16T17:07:02.738Z,20.13
2018-02-16T17:09:30.274Z,17.20
2018-02-16T17:11:57.868Z,17.00
2018-02-16T17:14:25.410Z,12.37
2018-02-16T17:16:52.949Z,12.77
2018-02-16T17:19:20.507Z,17.93
2018-02-16T17:21:48.031Z,6.90
2018-02-16T17:24:15.557Z,7.60
2018-02-16T17:26:43.144Z,10.33
2018-02-16T17:29:10.711Z,11.33
2018-02-16T17:31:38.289Z,13.53
2018-02-16T17:34:05.876Z,12.90
2018-02-16T17:36:33.459Z,13.60
2018-02-16T17:39:03.252Z,10.83
2018-02-16T17:41:31.343Z,22.97
2018-02-16T17:43:58.906Z,40.97
2018-02-16T17:46:26.505Z,29.73
2018-02-16T17:48:54.235Z,18.73
2018-02-16T17:51:21.821Z,35.63
2018-02-16T17:53:49.439Z,22.60
2018-02-16T17:56:16.971Z,27.33
2018-02-16T17:58:44.539Z,30.33
2018-02-16T18:01:12.055Z,34.40
2018-02-16T18:03:39.641Z,20.90
2018-02-16T18:06:07.150Z,18.30
2018-02-16T18:08:34.850Z,13.03
2018-02-16T18:11:02.402Z,14.27
2018-02-16T18:13:29.939Z,33.40
2018-02-16T18:15:57.575Z,23.87
2018-02-16T18:18:25.086Z,26.10
2018-02-16T18:20:52.735Z,21.20
2018-02-16T18:23:20.274Z,14.33
2018-02-16T18:25:47.816Z,18.87
2018-02-16T18:28:15.411Z,13.93
2018-02-16T18:30:42.930Z,9.13
2018-02-16T18:33:10.495Z,17.33
2018-02-16T18:35:38.127Z,11.40
2018-02-16T18:38:05.672Z,11.70
2018-02-16T18:40:33.195Z,16.00
2018-02-16T18:43:00.751Z,9.50
2018-02-16T18:45:28.273Z,16.83
2018-02-16T18:47:55.818Z,19.50
2018-02-16T18:50:23.406Z,12.03
2018-02-16T18:52:50.937Z,12.73
2018-02-16T18:55:18.514Z,15.67
2018-02-16T18:57:46.047Z,16.20
2018-02-16T19:00:13.556Z,19.23
2018-02-16T19:02:41.169Z,13.70
2018-02-16T19:05:08.725Z,17.70
2018-02-16T19:07:36.254Z,20.30
2018-02-16T19:10:03.870Z,24.73
2018-02-16T19:12:31.413Z,31.23
2018-02-16T19:14:58.962Z,28.27
2018-02-16T19:17:26.556Z,28.27
2018-02-16T19:19:54.142Z,20.80
2018-02-16T19:22:21.701Z,16.20
2018-02-16T19:24:49.267Z,31.20
2018-02-16T19:27:16.799Z,26.43
2018-02-16T19:29:44.405Z,24.27
2018-02-16T19:32:12.056Z,29.23
2018-02-16T19:34:39.622Z,31.67
2018-02-16T19:37:07.219Z,36.40
2018-02-16T19:39:34.782Z,29.13
2018-02-16T19:42:02.323Z,36.50
2018-02-16T19:44:29.904Z,41.67
2018-02-16T19:46:57.457Z,41.20
2018-02-16T19:49:25.066Z,40.90
2018-02-16T19:51:52.645Z,47.37
2018-02-16T19:54:20.230Z,35.30
2018-02-16T19:56:47.809Z,33.70
2018-02-16T19:59:15.390Z,37.20
2018-02-16T20:01:42.929Z,35.57
2018-02-16T20:04:10.549Z,46.07
2018-02-16T20:06:38.095Z,43.83
2018-02-16T20:09:05.644Z,38.53
2018-02-16T20:11:33.247Z,35.00
2018-02-16T20:14:00.801Z,41.20
2018-02-16T20:16:28.475Z,28.97
2018-02-16T20:18:56.057Z,34.33
2018-02-16T20:21:24.696Z,37.67
2018-02-16T20:23:52.317Z,34.30
2018-02-16T20:26:19.888Z,28.07
2018-02-16T20:28:47.450Z,36.97
2018-02-16T20:31:14.994Z,38.73
2018-02-16T20:33:42.523Z,31.87
2018-02-16T20:36:10.123Z,30.80
2018-02-16T20:38:37.673Z,32.17
2018-02-16T20:41:05.335Z,32.63
2018-02-16T20:43:32.917Z,34.40
2018-02-16T20:46:00.532Z,30.50
2018-02-16T20:48:28.081Z,32.23
2018-02-16T20:50:55.622Z,28.80
2018-02-16T20:53:23.186Z,41.00
2018-02-16T20:55:50.706Z,30.23
2018-02-16T20:58:18.251Z,30.77
2018-02-16T21:00:45.839Z,30.77
2018-02-16T21:03:13.389Z,23.10
2018-02-16T21:05:40.969Z,42.13
2018-02-16T21:08:08.534Z,45.73
2018-02-16T21:10:36.102Z,39.73
2018-02-16T21:13:03.667Z,41.83
2018-02-16T21:15:31.239Z,30.10
2018-02-16T21:17:58.862Z,28.50
2018-02-16T21:20:26.410Z,25.80
2018-02-16T21:22:54.007Z,33.40
2018-02-16T21:25:21.570Z,57.03
2018-02-16T21:27:49.101Z,50.90
2018-02-16T21:30:16.641Z,52.63
2018-02-16T21:32:44.236Z,92.13
2018-02-16T21:35:12.107Z,118.10
2018-02-16T21:37:39.679Z,86.23
2018-02-16T21:40:07.229Z,88.27
2018-02-16T21:42:34.842Z,112.87
2018-02-16T21:45:02.375Z,74.20
2018-02-16T21:47:29.903Z,74.17
2018-02-16T21:49:57.480Z,109.37
2018-02-16T21:52:25.702Z,126.47
2018-02-16T21:54:53.244Z,79.20
2018-02-16T21:57:20.775Z,107.37
2018-02-16T21:59:48.378Z,125.70
2018-02-16T22:02:15.922Z,64.20
2018-02-16T22:04:43.529Z,42.33
2018-02-16T22:07:11.118Z,46.03
2018-02-16T22:09:38.650Z,77.17
2018-02-16T22:12:06.239Z,87.10
2018-02-16T22:14:33.767Z,68.10
2018-02-16T22:17:01.328Z,73.00
2018-02-16T22:19:28.938Z,75.37
2018-02-16T22:21:56.460Z,43.30
2018-02-16T22:24:24.010Z,40.77
2018-02-16T22:26:51.584Z,41.17
2018-02-16T22:29:19.129Z,50.53
2018-02-16T22:31:46.723Z,53.17
2018-02-16T22:34:15.202Z,46.47
2018-02-16T22:36:42.746Z,41.33
2018-02-16T22:39:10.332Z,47.43
2018-02-16T22:41:37.863Z,63.63
2018-02-16T22:44:05.433Z,40.27
2018-02-16T22:46:32.962Z,46.70
2018-02-16T22:49:00.530Z,38.77
2018-02-16T22:51:28.097Z,52.83
2018-02-16T22:53:55.671Z,50.53
2018-02-16T22:56:23.230Z,46.43
2018-02-16T22:58:50.814Z,48.73
2018-02-16T23:01:18.404Z,28.73
2018-02-16T23:03:46.008Z,41.73
2018-02-16T23:06:13.556Z,31.07
2018-02-16T23:08:41.111Z,38.50
2018-02-16T23:11:08.663Z,33.00
2018-02-16T23:13:36.231Z,23.67
2018-02-16T23:16:03.771Z,32.83
2018-02-16T23:18:31.319Z,30.80
2018-02-16T23:20:58.933Z,46.80
2018-02-16T23:23:26.565Z,28.23
2018-02-16T23:25:54.110Z,29.43
2018-02-16T23:28:21.625Z,20.53
2018-02-16T23:30:49.208Z,24.80
2018-02-16T23:33:16.749Z,39.30
2018-02-16T23:35:44.346Z,28.00
2018-02-16T23:38:11.907Z,25.97
2018-02-16T23:40:39.463Z,38.77
2018-02-16T23:43:06.987Z,25.00
2018-02-16T23:45:34.521Z,31.00
2018-02-16T23:48:02.065Z,31.47
2018-02-16T23:50:29.680Z,31.83
2018-02-16T23:52:57.228Z,31.03
2018-02-16T23:55:24.789Z,30.93
2018-02-16T23:57:52.387Z,32.27
